Data for 02/15/2016

Time Sea-Level Adjusted Pressure Absolute Pressure Temperature Relative Humidity Dew Point   
(mb) (inHg) (mb) (inHg) (C) (F) (%) (C) (F)
00:05 1016 30 845 24.95 5.1 41.2 52 -3.9 24.9
00:10 1016 30 845 24.95 5.1 41.2 53 -3.6 25.5
00:15 1016 30 845 24.95 5 41 54 -3.5 25.7
00:20 1016 30 845 24.95 4.8 40.7 55 -3.5 25.7
00:25 1016 30 845 24.95 4.8 40.7 54 -3.8 25.2
00:30 1016 30 845 24.95 4.9 40.9 53 -3.8 25.1
00:35 1016 30 845 24.95 5 41 54 -3.6 25.5
00:40 1016 30 845 24.95 5 40.9 54 -3.5 25.6
00:45 1016 30 845 24.95 5 41 53 -3.7 25.3
00:50 1016 30 845 24.95 5.1 41.2 53 -3.7 25.4
00:55 1016 30 845 24.95 5.1 41.2 53 -3.6 25.6
01:00 1016 30 845 24.95 5.1 41.1 54 -3.6 25.6
01:05 1016 30 845 24.95 5.1 41.1 54 -3.5 25.7
01:10 1016 30 845 24.95 5.1 41.1 53 -3.6 25.5
01:15 1016 30 845 24.95 5.1 41.2 54 -3.4 25.8
01:20 1016 30 845 24.95 5.1 41.2 55 -3.3 26.1
01:25 1016 30 845 24.95 5 41 56 -3.1 26.5
01:30 1016 30 845 24.95 4.8 40.6 56 -3.2 26.2
01:35 1015 29.97 845 24.95 4.7 40.5 56 -3.4 25.8
01:40 1015 29.97 844 24.92 4.8 40.7 55 -3.5 25.7
01:45 1015 29.97 845 24.95 5 40.9 55 -3.3 26.1
01:50 1015 29.97 845 24.95 4.9 40.8 56 -3.2 26.2
01:55 1015 29.97 844 24.92 4.8 40.7 56 -3.2 26.2
02:00 1015 29.97 844 24.92 4.8 40.6 56 -3.2 26.2
02:05 1015 29.97 844 24.92 4.9 40.8 56 -3.1 26.4
02:10 1015 29.97 844 24.92 4.9 40.8 57 -3 26.7
02:15 1015 29.97 844 24.92 4.8 40.6 57 -3 26.7
02:20 1015 29.97 844 24.92 4.7 40.5 58 -2.9 26.9
02:25 1015 29.97 844 24.92 4.7 40.5 58 -2.9 26.9
02:30 1015 29.97 844 24.92 4.7 40.5 58 -2.8 26.9
02:35 1015 29.97 844 24.92 4.9 40.8 57 -3 26.6
02:40 1015 29.97 844 24.92 5.3 41.6 54 -3.3 26
02:45 1015 29.97 844 24.92 5.8 42.4 51 -3.6 25.5
02:50 1014 29.94 844 24.92 6.2 43.1 50 -3.4 25.8
02:55 1014 29.94 844 24.92 6.3 43.3 49 -3.5 25.7
03:00 1014 29.94 844 24.92 6.3 43.3 49 -3.6 25.6
03:05 1014 29.94 843 24.89 6.2 43.2 50 -3.5 25.7
03:10 1014 29.94 843 24.89 6.2 43.2 50 -3.5 25.7
03:15 1014 29.94 843 24.89 6.1 43 50 -3.4 25.9
03:20 1014 29.94 843 24.89 6.1 43 50 -3.6 25.6
03:25 1014 29.94 843 24.89 6.2 43.1 51 -3.2 26.2
03:30 1014 29.94 843 24.89 6.1 43 50 -3.4 25.9
03:35 1014 29.94 843 24.89 6.2 43.1 51 -3.2 26.2
03:40 1014 29.94 843 24.89 6.1 43 52 -3.1 26.5
03:45 1014 29.94 843 24.89 6 42.8 52 -3.1 26.4
03:50 1014 29.94 843 24.89 6 42.9 52 -3 26.6
03:55 1014 29.94 843 24.89 6 42.9 52 -3 26.6
04:00 1014 29.94 843 24.89 6.1 43 51 -3.2 26.2
04:05 1014 29.94 843 24.89 6.3 43.4 50 -3.3 26.1
04:10 1014 29.94 843 24.89 6.4 43.6 51 -2.9 26.8
04:15 1014 29.94 843 24.89 6.3 43.3 52 -2.8 27
04:20 1014 29.94 843 24.89 6 42.8 56 -2.1 28.2
04:25 1014 29.94 843 24.89 5.7 42.3 59 -1.8 28.8
04:30 1013 29.91 843 24.89 5.6 42.2 60 -1.5 29.2
04:35 1013 29.91 842 24.86 5.7 42.2 60 -1.4 29.4
04:40 1013 29.91 842 24.86 5.6 42 61 -1.3 29.7
04:45 1013 29.91 842 24.86 5.3 41.6 62 -1.3 29.6
04:50 1013 29.91 842 24.86 5.3 41.5 62 -1.5 29.4
04:55 1013 29.91 842 24.86 5.4 41.7 62 -1.4 29.4
05:00 1013 29.91 842 24.86 5.5 41.9 59 -1.8 28.7
05:05 1013 29.91 842 24.86 5.6 42.1 58 -2.1 28.3
05:10 1013 29.91 842 24.86 5.8 42.4 57 -1.9 28.5
05:15 1013 29.91 842 24.86 5.8 42.4 58 -1.8 28.8
05:20 1013 29.91 842 24.86 5.6 42.1 60 -1.4 29.5
05:25 1013 29.91 842 24.86 5.4 41.8 62 -1.3 29.7
05:30 1012 29.88 842 24.86 5.2 41.3 62 -1.4 29.5
05:35 1012 29.88 842 24.86 5.1 41.2 62 -1.5 29.3
05:40 1012 29.88 842 24.86 5 41.1 63 -1.3 29.6
05:45 1012 29.88 842 24.86 5 40.9 62 -1.6 29.1
05:50 1012 29.88 842 24.86 5.1 41.2 60 -1.9 28.6
05:55 1012 29.88 841 24.83 5.4 41.7 60 -1.8 28.7
06:00 1012 29.88 841 24.83 5.6 42 59 -1.9 28.6
06:05 1012 29.88 841 24.83 5.5 41.9 59 -1.9 28.6
06:10 1012 29.88 841 24.83 5.6 42.1 57 -2.1 28.2
06:15 1012 29.88 841 24.83 6.1 43 55 -2.3 27.9
06:20 1011 29.85 841 24.83 6.5 43.7 53 -2.3 27.9
06:25 1011 29.85 841 24.83 6.6 43.9 53 -2.3 27.9
06:30 1011 29.85 841 24.83 6.7 44.1 53 -2.3 27.9
06:35 1011 29.85 841 24.83 6.7 44 54 -2 28.4
06:40 1012 29.88 841 24.83 6.5 43.8 53 -2.3 27.8
06:45 1012 29.88 841 24.83 6.5 43.7 54 -2.1 28.3
06:50 1012 29.88 841 24.83 6.5 43.8 54 -2.1 28.2
06:55 1012 29.88 841 24.83 6.5 43.8 53 -2.3 27.9
07:00 1012 29.88 841 24.83 6.6 44 54 -2.1 28.3
07:05 1012 29.88 841 24.83 6.5 43.6 55 -1.8 28.7
07:10 1012 29.88 841 24.83 6.1 43 56 -2 28.4
07:15 1012 29.88 841 24.83 5.9 42.7 58 -1.8 28.8
07:20 1012 29.88 841 24.83 5.5 41.8 59 -1.8 28.7
07:25 1012 29.88 841 24.83 5.5 41.8 57 -2.4 27.7
07:30 1012 29.88 841 24.83 5.8 42.5 56 -2.3 27.9
07:35 1012 29.88 841 24.83 6.1 42.9 55 -2.3 27.9
07:40 1012 29.88 841 24.83 6.2 43.1 55 -2.2 28.1
07:45 1012 29.88 841 24.83 6.3 43.3 54 -2.3 27.8
07:50 1012 29.88 841 24.83 6.6 43.8 54 -2.1 28.3
07:55 1012 29.88 841 24.83 6.5 43.6 54 -2 28.3
08:00 1012 29.88 841 24.83 6.5 43.8 54 -2.2 28.1
08:05 1012 29.88 841 24.83 6.6 43.9 55 -1.8 28.7
08:10 1012 29.88 841 24.83 6.4 43.5 54 -2.2 28
08:15 1012 29.88 841 24.83 6.6 43.8 53 -2.3 27.8
08:20 1012 29.88 841 24.83 6.8 44.2 53 -2 28.3
08:25 1011 29.85 841 24.83 6.6 43.9 53 -2.4 27.7
08:30 1011 29.85 841 24.83 6.9 44.5 51 -2.6 27.4
08:35 1012 29.88 841 24.83 7.4 45.3 48 -2.8 26.9
08:40 1012 29.88 841 24.83 7.8 46 47 -2.7 27.1
08:45 1012 29.88 841 24.83 7.8 46.1 48 -2.4 27.7
08:50 1012 29.88 841 24.83 7.6 45.7 50 -2.3 27.9
08:55 1012 29.88 841 24.83 7.3 45.1 51 -2.2 28.1
09:00 1012 29.88 841 24.83 7 44.7 51 -2.3 27.9
09:05 1012 29.88 841 24.83 6.7 44.1 53 -2.2 28
09:10 1012 29.88 841 24.83 6.6 43.9 54 -2.1 28.2
09:15 1012 29.88 841 24.83 6.6 44 52 -2.4 27.7
09:20 1012 29.88 841 24.83 6.8 44.3 52 -2.4 27.8
09:25 1012 29.88 841 24.83 6.8 44.2 52 -2.3 27.9
09:30 1012 29.88 841 24.83 6.8 44.2 52 -2.3 27.9
09:35 1012 29.88 842 24.86 6.8 44.3 52 -2.4 27.6
09:40 1012 29.88 842 24.86 7 44.6 51 -2.4 27.6
09:45 1012 29.88 841 24.83 7.1 44.7 51 -2.4 27.6
09:50 1012 29.88 842 24.86 7.1 44.8 52 -2.2 28.1
09:55 1012 29.88 841 24.83 7 44.5 52 -2.3 27.9
10:00 1012 29.88 841 24.83 6.8 44.3 53 -2.2 28.1
10:05 1012 29.88 841 24.83 6.6 43.9 54 -2.1 28.2
10:10 1012 29.88 841 24.83 6.5 43.7 54 -2.2 28
10:15 1012 29.88 841 24.83 6.6 43.8 53 -2.4 27.6
10:20 1012 29.88 841 24.83 6.7 44.1 53 -2.2 28
10:25 1012 29.88 841 24.83 6.8 44.3 52 -2.3 27.9
10:30 1012 29.88 841 24.83 6.8 44.3 53 -2.2 28.1
10:35 1012 29.88 841 24.83 6.8 44.3 52 -2.3 27.8
10:40 1012 29.88 841 24.83 6.9 44.4 52 -2.2 28
10:45 1012 29.88 841 24.83 6.9 44.4 52 -2.3 27.9
10:50 1012 29.88 841 24.83 6.9 44.4 52 -2.2 28.1
10:55 1012 29.88 841 24.83 6.8 44.2 52 -2.3 27.9
11:00 1012 29.88 841 24.83 6.8 44.3 52 -2.3 27.9
11:05 1012 29.88 842 24.86 6.9 44.4 53 -2.1 28.1
11:10 1012 29.88 842 24.86 6.9 44.4 52 -2.2 28
11:15 1012 29.88 841 24.83 6.9 44.4 52 -2.2 28.1
11:20 1012 29.88 841 24.83 6.9 44.4 53 -2 28.3
11:25 1012 29.88 841 24.83 6.9 44.4 53 -2.1 28.3
11:30 1012 29.88 841 24.83 6.9 44.5 52 -2.3 27.9
11:35 1012 29.88 841 24.83 7.1 44.7 52 -2.1 28.2
11:40 1012 29.88 841 24.83 7.1 44.9 51 -2.2 28.1
11:45 1012 29.88 842 24.86 7.2 45 52 -2 28.4
11:50 1012 29.88 841 24.83 7.2 45 52 -2.1 28.3
11:55 1012 29.88 841 24.83 7.2 44.9 52 -2.1 28.2
12:00 1012 29.88 841 24.83 7.2 44.9 52 -2 28.4
12:05 1012 29.88 841 24.83 7.2 44.9 52 -1.9 28.6
12:10 1012 29.88 841 24.83 7.1 44.8 52 -2 28.4
12:15 1012 29.88 841 24.83 7.1 44.8 52 -2 28.4
12:20 1012 29.88 841 24.83 7.2 45 52 -2 28.3
12:25 1012 29.88 841 24.83 7.4 45.2 51 -2 28.4
12:30 1012 29.88 841 24.83 7.4 45.3 51 -2.1 28.2
12:35 1012 29.88 841 24.83 7.5 45.6 51 -2 28.3
12:40 1012 29.88 841 24.83 7.6 45.7 51 -1.9 28.6
12:45 1012 29.88 841 24.83 7.5 45.5 51 -2 28.3
12:50 1012 29.88 841 24.83 7.6 45.7 49 -2.4 27.7
12:55 1012 29.88 841 24.83 7.9 46.3 49 -2.2 28
13:00 1012 29.88 841 24.83 7.9 46.3 49 -2.1 28.2
13:05 1012 29.88 841 24.83 8 46.3 48 -2.3 27.9
13:10 1012 29.88 841 24.83 8.1 46.6 48 -2.2 28
13:15 1012 29.88 841 24.83 8.1 46.6 48 -2.1 28.1
13:20 1012 29.88 841 24.83 8.2 46.8 47 -2.3 27.9
13:25 1012 29.88 841 24.83 8.3 46.9 47 -2.2 28
13:30 1012 29.88 841 24.83 8.3 46.9 45 -2.9 26.8
13:35 1012 29.88 841 24.83 8.4 47.1 45 -2.7 27.1
13:40 1012 29.88 841 24.83 8.4 47.1 46 -2.5 27.5
13:45 1012 29.88 841 24.83 8.2 46.8 46 -2.6 27.2
13:50 1012 29.88 841 24.83 8.4 47.1 45 -2.8 27
13:55 1012 29.88 841 24.83 8.4 47.1 46 -2.4 27.7
14:00 1012 29.88 841 24.83 8.3 46.9 47 -2.5 27.5
14:05 1012 29.88 841 24.83 8.4 47.2 46 -2.5 27.4
14:10 1012 29.88 841 24.83 8.5 47.3 47 -2.2 28.1
14:15 1012 29.88 841 24.83 8.5 47.3 46 -2.4 27.6
14:20 1012 29.88 841 24.83 8.5 47.4 46 -2.3 27.9
14:25 1012 29.88 841 24.83 8.4 47.2 47 -2.3 27.8
14:30 1012 29.88 842 24.86 8.4 47 47 -2.2 28
14:35 1012 29.88 842 24.86 8.3 46.9 48 -2.1 28.2
14:40 1012 29.88 842 24.86 8.3 46.9 47 -2.5 27.6
14:45 1012 29.88 842 24.86 8.5 47.3 46 -2.3 27.9
14:50 1012 29.88 842 24.86 8.6 47.5 46 -2.2 28
14:55 1013 29.91 842 24.86 8.5 47.3 47 -2.1 28.2
15:00 1013 29.91 842 24.86 8.3 46.9 48 -2.2 28.1
15:05 1013 29.91 842 24.86 8.2 46.8 46 -2.7 27.1
15:10 1013 29.91 842 24.86 8.4 47.1 45 -3 26.7
15:15 1013 29.91 842 24.86 8.4 47.1 45 -2.7 27.1
15:20 1013 29.91 842 24.86 8.3 46.9 46 -2.6 27.4
15:25 1013 29.91 842 24.86 8.1 46.7 46 -2.7 27.1
15:30 1013 29.91 842 24.86 8.1 46.5 47 -2.6 27.3
15:35 1013 29.91 842 24.86 8.1 46.5 46 -2.8 27
15:40 1013 29.91 842 24.86 8.1 46.5 46 -2.8 26.9
15:45 1013 29.91 842 24.86 8.1 46.6 47 -2.6 27.3
15:50 1013 29.91 843 24.89 8 46.5 46 -2.9 26.8
15:55 1013 29.91 843 24.89 7.9 46.3 47 -2.7 27.1
16:00 1013 29.91 843 24.89 7.9 46.1 47 -2.8 26.9
16:05 1014 29.94 843 24.89 7.8 46.1 47 -2.8 26.9
16:10 1014 29.94 843 24.89 7.7 45.8 48 -2.7 27.1
16:15 1014 29.94 843 24.89 7.6 45.7 47 -3 26.5
16:20 1014 29.94 843 24.89 7.7 45.8 46 -3.1 26.5
16:25 1014 29.94 843 24.89 7.5 45.6 48 -2.8 27
16:30 1014 29.94 843 24.89 7.3 45.1 49 -2.8 27
16:35 1014 29.94 843 24.89 7.2 45 48 -2.9 26.8
16:40 1014 29.94 843 24.89 7.4 45.3 48 -2.9 26.9
16:45 1014 29.94 843 24.89 7.6 45.6 48 -2.7 27.1
16:50 1014 29.94 843 24.89 7.3 45.2 50 -2.2 28
16:55 1014 29.94 844 24.92 7 44.6 51 -2.4 27.7
17:00 1014 29.94 844 24.92 6.8 44.2 52 -2.5 27.6
17:05 1014 29.94 844 24.92 6.8 44.3 52 -2.3 27.8
17:10 1014 29.94 844 24.92 6.9 44.4 51 -2.5 27.5
17:15 1014 29.94 844 24.92 6.9 44.5 50 -2.7 27.2
17:20 1014 29.94 844 24.92 7 44.6 50 -2.8 26.9
17:25 1014 29.94 844 24.92 7 44.6 49 -3 26.6
17:30 1014 29.94 843 24.89 7.1 44.7 48 -3.3 26.1
17:35 1014 29.94 844 24.92 7.2 44.9 47 -3.3 26.1
17:40 1014 29.94 844 24.92 7.1 44.8 49 -3 26.6
17:45 1014 29.94 844 24.92 6.9 44.4 49 -3 26.6
17:50 1014 29.94 844 24.92 6.7 44.1 50 -3.1 26.5
17:55 1014 29.94 844 24.92 6.7 44 51 -2.8 27
18:00 1014 29.94 844 24.92 6.4 43.6 52 -2.8 27
18:05 1014 29.94 844 24.92 6.3 43.3 53 -2.7 27.2
18:10 1014 29.94 843 24.89 6.1 43 53 -2.7 27.2
18:15 1014 29.94 843 24.89 6.1 43 53 -2.7 27.1
18:20 1014 29.94 843 24.89 6.2 43.1 54 -2.3 27.8
18:25 1014 29.94 843 24.89 5.9 42.7 55 -2.3 27.9
18:30 1014 29.94 843 24.89 5.8 42.5 56 -2.1 28.1
18:35 1015 29.97 844 24.92 5.9 42.7 56 -2.2 28
18:40 1015 29.97 845 24.95 6 42.8 56 -2.2 28
18:45 1016 30 845 24.95 5.9 42.6 56 -2.2 28
18:50 1016 30 845 24.95 5.7 42.3 56 -2.3 27.8
18:55 1016 30 845 24.95 5.7 42.2 57 -2.3 27.9
19:00 1016 30 845 24.95 5.7 42.3 56 -2.3 27.9
19:05 1016 30 845 24.95 5.7 42.2 57 -2.3 27.9
19:10 1016 30 845 24.95 5.7 42.2 57 -2.2 28.1
19:15 1016 30 845 24.95 5.6 42.1 58 -1.9 28.5
19:20 1016 30 845 24.95 5.5 41.9 61 -1.4 29.5
19:25 1016 30 845 24.95 5.4 41.7 62 -1.4 29.5
19:30 1016 30 846 24.98 5.3 41.6 63 -1.2 29.8
19:35 1017 30.03 846 24.98 5.4 41.7 62 -1.3 29.6
19:40 1017 30.03 846 24.98 5.4 41.8 62 -1.3 29.6
19:45 1017 30.03 846 24.98 5.5 41.9 59 -1.9 28.5
19:50 1017 30.03 846 24.98 5.7 42.2 58 -1.9 28.5
19:55 1017 30.03 846 24.98 5.9 42.6 57 -2.1 28.3
20:00 1017 30.03 846 24.98 5.9 42.7 56 -2.1 28.1
20:05 1017 30.03 846 24.98 6.1 43 53 -2.8 27
20:10 1017 30.03 846 24.98 6.4 43.5 52 -2.7 27.1
20:15 1017 30.03 846 24.98 6.5 43.6 52 -2.7 27.2
20:20 1017 30.03 846 24.98 6.4 43.6 53 -2.5 27.4
20:25 1017 30.03 846 24.98 6.3 43.4 53 -2.5 27.4
20:30 1017 30.03 846 24.98 6.3 43.3 53 -2.6 27.3
20:35 1017 30.03 846 24.98 6.2 43.2 53 -2.5 27.4
20:40 1017 30.03 846 24.98 6.1 43 54 -2.5 27.6
20:45 1017 30.03 846 24.98 6 42.7 56 -2.2 28
20:50 1017 30.03 846 24.98 5.8 42.4 56 -2.4 27.7
20:55 1017 30.03 846 24.98 5.4 41.6 57 -2.4 27.7
21:00 1017 30.03 846 24.98 5.1 41.2 59 -2.3 27.9
21:05 1017 30.03 846 24.98 5 41 59 -2.3 27.8
21:10 1017 30.03 846 24.98 4.9 40.8 59 -2.4 27.8
21:15 1017 30.03 846 24.98 5 40.9 58 -2.6 27.3
21:20 1017 30.03 846 24.98 5.1 41.2 57 -2.6 27.3
21:25 1017 30.03 846 24.98 5.1 41.2 58 -2.4 27.7
21:30 1017 30.03 846 24.98 5.1 41.1 58 -2.5 27.5
21:35 1017 30.03 846 24.98 4.8 40.7 60 -2.2 28
21:40 1017 30.03 846 24.98 4.8 40.6 60 -2.4 27.7
21:45 1017 30.03 846 24.98 4.8 40.6 56 -3.2 26.3
21:50 1017 30.03 846 24.98 5.1 41.2 56 -3 26.5
21:55 1017 30.03 847 25.01 5.2 41.3 57 -2.6 27.2
22:00 1017 30.03 847 25.01 5.2 41.4 54 -3.3 26.1
22:05 1018 30.06 847 25.01 5.4 41.7 55 -3 26.6
22:10 1018 30.06 847 25.01 5.3 41.5 54 -3.3 26
22:15 1018 30.06 847 25.01 5.4 41.7 52 -3.6 25.5
22:20 1018 30.06 847 25.01 5.4 41.6 54 -3.3 26
22:25 1018 30.06 847 25.01 5.4 41.7 54 -3.3 26.1
22:30 1018 30.06 847 25.01 5.5 41.9 54 -3.1 26.4
22:35 1018 30.06 847 25.01 5.4 41.7 55 -2.9 26.9
22:40 1018 30.06 847 25.01 5.2 41.4 54 -3.3 26
22:45 1018 30.06 847 25.01 5.3 41.5 54 -3.3 26.1
22:50 1018 30.06 847 25.01 5.4 41.6 54 -3.3 26
22:55 1018 30.06 847 25.01 5.4 41.6 54 -3.2 26.2
23:00 1018 30.06 847 25.01 5.3 41.6 53 -3.4 25.9
23:05 1018 30.06 847 25.01 5.4 41.7 54 -3.2 26.2
23:10 1018 30.06 847 25.01 5.4 41.7 54 -3.1 26.4
23:15 1017 30.03 847 25.01 5.3 41.6 54 -3.2 26.3
23:20 1018 30.06 847 25.01 5.3 41.6 54 -3.3 26.1
23:25 1017 30.03 847 25.01 5.3 41.5 54 -3.2 26.2
23:30 1017 30.03 847 25.01 5.2 41.3 56 -2.9 26.8
23:35 1018 30.06 847 25.01 4.9 40.8 57 -3 26.6
23:40 1018 30.06 847 25.01 4.8 40.6 56 -3.2 26.3
23:45 1017 30.03 847 25.01 4.8 40.7 56 -3.2 26.3
23:50 1017 30.03 847 25.01 4.8 40.6 56 -3.2 26.3
23:55 1017 30.03 847 25.01 4.9 40.7 56 -3.2 26.2
24:00 1017 30.03 847 25.01 4.8 40.6 57 -3.1 26.4